Time;durP1;ratioP1;P1;durP2;ratioP2;P2;SDS_P1;SDS_P2;PMS_P1;PMS_P2;Temp;Humidity;BMP_temperature;BMP_pressure;BME280_temperature;BME280_humidity;BME280_pressure;Samples;Min_cycle;Max_cycle;Signal;HPM_P1;HPM_P2
2022/08/11 00:00:46;;;;;;;11.02;4.30;;;17.30;99.90;;;;;;4972029;28;20057;-95
2022/08/11 00:03:14;;;;;;;10.90;4.50;;;17.30;99.90;;;;;;4968735;28;20098;-94
2022/08/11 00:06:06;;;;;;;8.30;4.18;;;17.30;99.90;;;;;;4969997;28;20070;-95
2022/08/11 00:08:33;;;;;;;8.75;4.03;;;17.20;99.90;;;;;;4928905;28;20051;-94
2022/08/11 00:11:03;;;;;;;8.93;4.18;;;17.20;99.90;;;;;;4973429;28;20051;-94
2022/08/11 00:13:44;;;;;;;10.50;4.60;;;17.20;99.90;;;;;;4987564;28;20038;-95
2022/08/11 00:16:20;;;;;;;9.73;4.38;;;17.20;99.90;;;;;;4971423;28;20047;-94
2022/08/11 00:22:29;;;;;;;9.35;4.60;;;17.10;99.90;;;;;;4973391;28;20073;-95
2022/08/11 00:24:56;;;;;;;10.40;4.40;;;17.10;99.90;;;;;;4983515;28;20045;-94
2022/08/11 00:27:33;;;;;;;10.48;4.55;;;17.10;99.90;;;;;;4985119;28;20035;-94
2022/08/11 00:29:59;;;;;;;9.50;4.95;;;17.10;99.90;;;;;;4950155;28;20050;-94
2022/08/11 00:32:27;;;;;;;14.98;5.13;;;17.00;99.90;;;;;;4955676;28;20415;-94
2022/08/11 00:34:53;;;;;;;10.02;4.90;;;17.00;99.90;;;;;;4952195;28;20031;-95
2022/08/11 00:37:21;;;;;;;10.35;5.05;;;17.00;99.90;;;;;;4970415;28;20470;-95
2022/08/11 00:39:52;;;;;;;11.38;5.68;;;17.00;99.90;;;;;;4944571;28;20078;-95
2022/08/11 00:42:55;;;;;;;13.68;5.47;;;17.00;99.90;;;;;;4972465;28;20763;-94
2022/08/11 00:45:42;;;;;;;11.95;5.93;;;16.90;99.90;;;;;;4965048;28;20045;-94
2022/08/11 00:48:37;;;;;;;11.45;5.45;;;16.90;99.90;;;;;;4966048;28;20066;-94
2022/08/11 00:51:16;;;;;;;10.93;5.47;;;16.90;99.90;;;;;;4971209;28;20050;-95
2022/08/11 00:54:10;;;;;;;10.57;5.35;;;16.80;99.90;;;;;;4972898;28;20043;-94
2022/08/11 00:57:03;;;;;;;10.85;5.70;;;16.80;99.90;;;;;;4957363;28;20115;-95
2022/08/11 01:00:05;;;;;;;10.27;5.47;;;16.80;99.90;;;;;;4963793;28;20531;-94
2022/08/11 01:03:02;;;;;;;11.05;5.63;;;16.80;99.90;;;;;;4950241;28;20047;-94
2022/08/11 01:06:12;;;;;;;11.63;5.22;;;16.80;99.90;;;;;;4970946;28;20488;-94
2022/08/11 01:09:15;;;;;;;11.68;5.55;;;16.80;99.90;;;;;;4898390;29;20059;-95
2022/08/11 01:12:15;;;;;;;11.52;6.03;;;16.80;99.90;;;;;;4986721;28;20121;-94
2022/08/11 01:15:18;;;;;;;10.82;5.72;;;16.80;99.90;;;;;;4971993;28;20439;-95
2022/08/11 01:18:04;;;;;;;;;;;16.70;99.90;;;;;;4970075;28;20053;-94
2022/08/11 01:20:54;;;;;;;10.10;5.38;;;16.60;99.90;;;;;;4976775;28;19987;-95
2022/08/11 01:23:41;;;;;;;11.18;5.85;;;16.60;99.90;;;;;;4970753;28;20121;-94
2022/08/11 01:26:34;;;;;;;10.40;5.85;;;16.60;99.90;;;;;;4966939;28;20539;-94
2022/08/11 01:29:34;;;;;;;11.63;6.00;;;16.60;99.90;;;;;;4976738;28;20388;-94
2022/08/11 01:32:10;;;;;;;10.77;5.90;;;16.50;99.90;;;;;;4965401;28;20085;-95
2022/08/11 01:35:01;;;;;;;14.10;6.47;;;16.50;99.90;;;;;;4953604;28;20502;-94
2022/08/11 01:38:00;;;;;;;11.10;6.05;;;16.50;99.90;;;;;;4986049;28;20039;-94
2022/08/11 01:40:49;;;;;;;14.45;6.43;;;16.40;99.90;;;;;;4953069;28;20113;-94
2022/08/11 01:47:05;;;;;;;10.68;6.25;;;16.40;99.90;;;;;;4965705;28;20117;-95
2022/08/11 01:49:46;;;;;;;10.40;5.97;;;16.30;99.90;;;;;;4967720;28;20039;-95
2022/08/11 01:52:47;;;;;;;11.50;6.47;;;16.40;99.90;;;;;;4951383;28;20053;-95
2022/08/11 01:55:35;;;;;;;12.85;6.70;;;16.40;99.90;;;;;;4964711;28;20133;-95
2022/08/11 01:58:42;;;;;;;11.13;6.43;;;16.40;99.90;;;;;;4966768;28;20043;-95
2022/08/11 02:01:49;;;;;;;12.98;6.22;;;16.30;99.90;;;;;;4948260;28;20054;-94
2022/08/11 02:04:35;;;;;;;11.07;6.50;;;16.30;99.90;;;;;;4974506;28;20057;-94
2022/08/11 02:07:21;;;;;;;11.73;6.20;;;16.30;99.90;;;;;;4957471;28;20186;-95
2022/08/11 02:13:48;;;;;;;11.30;6.15;;;16.60;99.90;;;;;;4979800;28;20085;-94
2022/08/11 02:16:57;;;;;;;10.23;6.07;;;16.20;99.90;;;;;;4928752;28;20593;-95
2022/08/11 02:26:16;;;;;;;11.70;6.43;;;16.20;99.90;;;;;;4955712;28;20608;-94
2022/08/11 02:28:54;;;;;;;11.50;6.55;;;;;;;;;;4968096;28;20042;-94
2022/08/11 02:34:55;;;;;;;11.23;6.22;;;;;;;;;;4969771;28;20137;-95
2022/08/11 02:37:32;;;;;;;11.05;6.50;;;16.10;99.90;;;;;;4951762;28;20054;-95
2022/08/11 02:40:00;;;;;;;10.77;6.50;;;16.10;99.90;;;;;;4968045;28;20043;-95
2022/08/11 02:42:41;;;;;;;13.18;6.80;;;16.10;99.90;;;;;;4973274;28;20071;-94
2022/08/11 02:45:10;;;;;;;11.75;6.60;;;16.10;99.90;;;;;;4972859;28;20045;-94
2022/08/11 02:51:02;;;;;;;12.35;6.13;;;16.00;99.90;;;;;;4962414;28;20054;-94
2022/08/11 02:53:48;;;;;;;10.68;6.10;;;16.00;99.90;;;;;;4955651;28;20135;-94
2022/08/11 02:56:37;;;;;;;10.63;6.15;;;16.10;99.90;;;;;;4955546;28;20058;-95
2022/08/11 03:02:42;;;;;;;10.63;6.30;;;16.00;99.90;;;;;;4976835;28;20049;-94
2022/08/11 03:05:16;;;;;;;10.80;6.00;;;15.70;99.90;;;;;;4968047;28;20069;-94
2022/08/11 03:07:42;;;;;;;11.73;5.90;;;16.00;99.90;;;;;;4974764;28;20042;-94
2022/08/11 03:10:39;;;;;;;10.60;6.32;;;16.00;99.90;;;;;;4976255;28;20095;-94
2022/08/11 03:19:21;;;;;;;10.40;5.65;;;16.00;99.90;;;;;;4961217;28;20051;-94
2022/08/11 03:22:10;;;;;;;11.02;5.93;;;16.00;99.90;;;;;;4957698;28;20035;-94
2022/08/11 03:24:53;;;;;;;10.98;5.70;;;16.00;99.90;;;;;;4999200;28;20042;-94
2022/08/11 03:27:37;;;;;;;12.52;6.10;;;16.00;99.90;;;;;;4975922;28;20130;-95
2022/08/11 03:30:33;;;;;;;10.05;5.50;;;15.90;99.90;;;;;;4967023;28;20046;-94
2022/08/11 03:36:37;;;;;;;11.70;6.20;;;15.90;99.90;;;;;;4972265;28;20145;-94
2022/08/11 03:39:09;;;;;;;11.07;6.30;;;16.00;99.90;;;;;;4927989;28;20051;-93
2022/08/11 03:41:55;;;;;;;12.27;6.30;;;15.90;99.90;;;;;;4962328;28;20039;-94
2022/08/11 03:44:50;;;;;;;10.57;5.95;;;16.00;99.90;;;;;;4968019;28;20385;-94
2022/08/11 03:47:54;;;;;;;10.65;5.40;;;15.90;99.90;;;;;;4947325;28;20051;-95
2022/08/11 03:50:51;;;;;;;;;;;15.90;99.90;;;;;;4971777;28;20103;-94
2022/08/11 03:53:29;;;;;;;9.32;4.75;;;15.90;99.90;;;;;;4957064;28;20069;-94
2022/08/11 03:56:06;;;;;;;11.80;5.90;;;;;;;;;;4969714;28;20077;-93
2022/08/11 03:59:00;;;;;;;10.55;5.57;;;15.90;99.90;;;;;;4988185;28;20317;-94
2022/08/11 04:01:45;;;;;;;12.00;6.05;;;15.60;99.90;;;;;;4972240;28;20147;-94
2022/08/11 04:04:42;;;;;;;11.52;6.40;;;15.70;99.90;;;;;;4961203;28;20483;-94
2022/08/11 04:07:39;;;;;;;11.93;5.50;;;15.80;99.90;;;;;;4954262;28;20039;-94
2022/08/11 04:10:24;;;;;;;10.45;5.22;;;;;;;;;;4972685;28;20038;-95
2022/08/11 04:13:19;;;;;;;10.43;4.68;;;15.80;99.90;;;;;;4958157;28;20042;-95
2022/08/11 04:16:22;;;;;;;9.13;4.93;;;15.80;99.90;;;;;;4969088;28;20038;-94
2022/08/11 04:19:11;;;;;;;10.25;4.57;;;15.80;99.90;;;;;;4955303;28;20487;-95
2022/08/11 04:22:07;;;;;;;9.35;4.18;;;15.70;99.90;;;;;;4973728;28;20037;-94
2022/08/11 04:24:39;;;;;;;8.07;3.80;;;15.80;99.90;;;;;;4972565;28;20174;-94
2022/08/11 04:27:23;;;;;;;8.27;3.90;;;15.70;99.90;;;;;;4972295;28;20582;-95
2022/08/11 04:30:16;;;;;;;8.07;3.80;;;15.70;99.90;;;;;;4954966;28;20134;-94
2022/08/11 04:33:01;;;;;;;;;;;15.70;99.90;;;;;;4974483;28;20043;-94
2022/08/11 04:35:49;;;;;;;11.27;4.20;;;15.70;99.90;;;;;;4967114;28;20386;-94
2022/08/11 04:38:49;;;;;;;10.10;4.47;;;15.70;99.90;;;;;;4951243;28;20462;-94
2022/08/11 04:43:19;;;;;;;10.40;4.65;;;15.30;99.90;;;;;;4972565;28;20085;-94
2022/08/11 04:44:48;;;;;;;8.98;4.38;;;15.70;99.90;;;;;;4971661;28;20046;-94
2022/08/11 05:05:29;;;;;;;10.90;5.88;;;15.70;99.90;;;;;;4968243;28;20402;-92
2022/08/11 05:07:24;;;;;;;10.93;5.82;;;16.00;99.90;;;;;;4965181;28;20058;-93
2022/08/11 05:10:40;;;;;;;10.40;5.68;;;15.00;99.90;;;;;;4970618;28;20042;-94
2022/08/11 05:37:32;;;;;;;11.75;6.25;;;16.50;99.90;;;;;;4967372;28;20059;-93
2022/08/11 05:57:44;;;;;;;12.60;6.80;;;17.60;99.90;;;;;;4958856;28;20050;-94
2022/08/11 06:00:14;;;;;;;11.95;7.18;;;17.80;99.90;;;;;;4955288;29;20105;-94
2022/08/11 06:02:45;;;;;;;13.50;7.43;;;17.90;99.90;;;;;;4971124;28;20156;-94
2022/08/11 06:05:15;;;;;;;12.55;7.07;;;18.50;99.90;;;;;;4974391;28;20126;-94
2022/08/11 06:08:11;;;;;;;11.55;6.15;;;18.20;99.90;;;;;;4957077;28;20137;-95
2022/08/11 06:11:08;;;;;;;12.20;7.25;;;18.30;99.90;;;;;;4952819;28;20074;-95
2022/08/11 06:14:45;;;;;;;11.90;6.53;;;18.70;99.90;;;;;;4967448;28;20047;-94
2022/08/11 06:20:51;;;;;;;12.88;6.63;;;18.70;99.90;;;;;;4980157;28;20092;-91
2022/08/11 06:23:37;;;;;;;11.85;6.80;;;18.90;99.90;;;;;;4956045;28;20080;-93
2022/08/11 06:26:20;;;;;;;12.05;6.82;;;18.70;99.90;;;;;;4961819;28;20070;-93
2022/08/11 06:29:07;;;;;;;13.30;6.72;;;19.10;99.90;;;;;;4970719;28;20081;-93
2022/08/11 06:32:23;;;;;;;12.07;6.50;;;18.90;99.90;;;;;;4954620;28;20199;-91
2022/08/11 06:35:36;;;;;;;13.25;6.75;;;;;;;;;;4960264;28;20273;-92
2022/08/11 06:38:36;;;;;;;;;;;;;;;;;;;;;
2022/08/11 06:44:51;;;;;;;11.55;6.10;;;19.30;99.90;;;;;;4969588;28;20043;-95
2022/08/11 06:47:20;;;;;;;12.30;5.50;;;19.50;99.90;;;;;;4971754;28;20082;-94
2022/08/11 06:53:18;;;;;;;12.95;5.35;;;19.80;99.90;;;;;;4975236;28;20027;-94
2022/08/11 07:06:21;;;;;;;9.98;4.85;;;20.20;99.90;;;;;;4974335;28;20377;-90
2022/08/11 07:17:48;;;;;;;10.45;4.90;;;20.90;99.90;;;;;;4971279;28;20524;-93
2022/08/11 07:28:54;;;;;;;11.55;4.82;;;21.00;99.90;;;;;;4954032;28;20278;-92
2022/08/11 07:29:35;;;;;;;10.30;4.50;;;21.50;99.90;;;;;;4948738;28;20047;-92
2022/08/11 07:32:13;;;;;;;11.43;4.72;;;21.50;99.90;;;;;;4963077;28;20047;-92
2022/08/11 07:34:44;;;;;;;9.82;4.63;;;18.70;99.90;;;;;;4962127;28;20053;-93
2022/08/11 07:37:18;;;;;;;11.77;4.68;;;21.70;99.90;;;;;;4949384;28;20047;-92
2022/08/11 07:39:49;;;;;;;9.48;4.40;;;21.70;99.90;;;;;;4943537;28;20078;-93
2022/08/11 07:42:20;;;;;;;8.77;4.13;;;21.90;99.90;;;;;;4970935;28;20043;-92
2022/08/11 07:53:03;;;;;;;8.70;4.00;;;22.30;99.90;;;;;;4958907;28;20046;-92
2022/08/11 07:55:33;;;;;;;8.90;4.03;;;22.40;99.90;;;;;;4968554;28;20035;-92
2022/08/11 08:20:12;;;;;;;8.50;3.22;;;23.50;99.90;;;;;;4957508;28;20059;-94
2022/08/11 08:22:38;;;;;;;8.73;3.30;;;23.60;99.90;;;;;;4956993;28;20098;-95
2022/08/11 08:25:08;;;;;;;9.40;3.92;;;23.70;99.90;;;;;;4959428;28;20081;-95
2022/08/11 08:27:38;;;;;;;14.55;3.70;;;23.80;99.90;;;;;;4979738;28;20042;-96
2022/08/11 08:32:50;;;;;;;10.68;3.55;;;23.90;99.90;;;;;;4958982;28;20058;-93
2022/08/11 08:35:17;;;;;;;8.25;3.05;;;24.00;99.90;;;;;;4957735;28;20077;-93
2022/08/11 08:37:43;;;;;;;9.38;3.10;;;24.10;99.90;;;;;;4972340;28;20199;-90
2022/08/11 08:40:14;;;;;;;7.75;2.97;;;24.20;99.90;;;;;;4948763;28;20089;-94
2022/08/11 08:42:58;;;;;;;7.47;2.75;;;24.20;99.90;;;;;;4960519;28;20047;-93
2022/08/11 08:45:26;;;;;;;7.60;2.78;;;24.30;99.90;;;;;;4974133;28;20055;-92
2022/08/11 08:48:10;;;;;;;7.53;2.80;;;24.40;99.90;;;;;;4955327;28;20039;-94
2022/08/11 08:53:35;;;;;;;7.72;3.05;;;24.60;99.90;;;;;;4987887;28;20042;-93
2022/08/11 08:56:02;;;;;;;8.35;2.75;;;24.70;99.90;;;;;;4950090;28;20148;-94
2022/08/11 08:58:29;;;;;;;9.00;2.88;;;24.80;99.90;;;;;;4951322;28;20045;-93
2022/08/11 09:00:58;;;;;;;7.97;2.90;;;24.90;99.90;;;;;;4976631;28;20047;-92
2022/08/11 09:03:27;;;;;;;8.68;2.60;;;25.00;99.90;;;;;;4966611;28;20078;-93
2022/08/11 09:05:54;;;;;;;5.60;2.30;;;25.10;99.90;;;;;;4953908;28;20039;-94
2022/08/11 09:08:21;;;;;;;8.25;2.30;;;25.20;99.90;;;;;;4970600;28;20043;-91
2022/08/11 09:13:35;;;;;;;6.90;2.58;;;25.30;99.90;;;;;;4961762;28;20053;-89
2022/08/11 09:16:04;;;;;;;7.95;2.38;;;25.40;99.90;;;;;;4985858;28;20039;-92
2022/08/11 09:18:31;;;;;;;7.75;2.25;;;25.50;99.90;;;;;;4983575;28;20130;-94
2022/08/11 09:20:57;;;;;;;8.15;2.40;;;25.60;99.90;;;;;;4954230;28;20047;-94
2022/08/11 09:28:54;;;;;;;7.20;2.15;;;25.90;99.90;;;;;;4968309;28;20079;-93
2022/08/11 09:31:21;;;;;;;6.45;1.83;;;26.00;99.90;;;;;;4956781;28;20047;-91
2022/08/11 09:33:52;;;;;;;6.43;2.00;;;26.00;99.90;;;;;;4959907;28;20043;-94
2022/08/11 09:42:19;;;;;;;5.43;1.73;;;26.30;99.90;;;;;;4936184;29;20065;-94
2022/08/11 09:44:46;;;;;;;9.07;2.10;;;26.40;99.90;;;;;;4973908;28;20419;-94
2022/08/11 09:47:18;;;;;;;5.68;1.65;;;26.40;99.90;;;;;;4984155;28;20042;-92
2022/08/11 09:49:45;;;;;;;5.53;1.80;;;26.50;99.90;;;;;;4966918;28;20507;-93
2022/08/11 09:52:13;;;;;;;6.20;1.90;;;26.60;99.90;;;;;;4952813;28;20046;-94
2022/08/11 09:54:41;;;;;;;6.80;1.77;;;26.70;99.90;;;;;;4969336;28;20068;-93
2022/08/11 09:59:52;;;;;;;4.82;2.00;;;26.80;99.90;;;;;;4962296;28;20053;-91
2022/08/11 10:02:25;;;;;;;5.10;1.70;;;26.80;99.90;;;;;;4950992;28;20297;-92
2022/08/11 10:07:00;;;;;;;6.28;1.80;;;26.90;99.90;;;;;;4958323;28;20046;-92
2022/08/11 10:07:41;;;;;;;4.13;1.70;;;27.00;99.90;;;;;;4968114;28;20047;-90
2022/08/11 10:10:08;;;;;;;4.55;1.70;;;27.10;99.90;;;;;;4969647;28;20047;-91
2022/08/11 10:12:41;;;;;;;4.25;1.60;;;27.20;99.90;;;;;;4951384;28;20298;-90
2022/08/11 10:20:56;;;;;;;4.15;1.60;;;27.40;99.90;;;;;;4971741;28;20042;-91
2022/08/11 10:28:53;;;;;;;7.50;1.95;;;27.50;99.90;;;;;;4956035;28;20081;-90
2022/08/11 10:34:07;;;;;;;8.63;2.33;;;27.50;99.90;;;;;;4969528;28;20054;-90
2022/08/11 10:36:44;;;;;;;9.88;2.80;;;27.50;99.90;;;;;;4962706;28;20043;-89
2022/08/11 10:39:15;;;;;;;7.65;2.35;;;27.60;99.90;;;;;;4968665;28;20054;-90
2022/08/11 10:44:39;;;;;;;7.82;2.42;;;27.60;99.90;;;;;;4983207;28;20456;-91
2022/08/11 11:00:57;;;;;;;6.57;1.80;;;28.00;99.90;;;;;;4935393;29;20090;-92
2022/08/11 11:03:29;;;;;;;8.02;2.05;;;28.00;99.90;;;;;;4952961;28;20117;-93
2022/08/11 11:06:24;;;;;;;4.85;1.90;;;28.00;99.90;;;;;;4943574;28;20045;-93
2022/08/11 11:08:56;;;;;;;6.47;1.85;;;28.10;99.90;;;;;;4957669;28;20059;-91
2022/08/11 11:19:58;;;;;;;6.60;1.77;;;28.30;99.90;;;;;;4969391;28;20078;-92
2022/08/11 11:22:39;;;;;;;6.25;1.80;;;28.30;99.90;;;;;;4965394;28;20058;-92
2022/08/11 11:25:37;;;;;;;6.00;1.92;;;28.70;99.90;;;;;;4954726;28;20050;-93
2022/08/11 11:28:23;;;;;;;8.27;2.00;;;28.50;99.90;;;;;;4961524;28;20411;-93
2022/08/11 11:31:21;;;;;;;4.55;1.65;;;28.50;98.90;;;;;;4946055;29;20078;-93
2022/08/11 11:34:05;;;;;;;6.57;1.88;;;28.60;99.20;;;;;;4951539;28;20177;-92
2022/08/11 11:36:38;;;;;;;4.93;1.80;;;28.90;99.70;;;;;;4971190;28;20085;-93
2022/08/11 11:39:05;;;;;;;4.95;1.90;;;28.60;99.70;;;;;;4982484;28;20122;-94
2022/08/11 11:41:41;;;;;;;6.47;2.13;;;28.70;99.60;;;;;;4954375;29;20039;-94
2022/08/11 11:44:10;;;;;;;4.78;1.80;;;28.70;98.80;;;;;;4970896;28;20039;-95
2022/08/11 11:46:36;;;;;;;7.38;2.00;;;28.70;99.50;;;;;;4955885;28;20158;-94
2022/08/11 11:49:07;;;;;;;6.47;1.88;;;28.70;99.40;;;;;;4971473;28;20034;-94
2022/08/11 11:51:54;;;;;;;7.80;2.20;;;28.80;99.70;;;;;;4950412;28;20043;-94
2022/08/11 11:54:28;;;;;;;6.30;1.85;;;28.80;99.00;;;;;;4971707;28;20316;-93
2022/08/11 11:56:56;;;;;;;6.75;2.00;;;28.80;99.00;;;;;;4951028;28;20411;-93
2022/08/11 12:02:23;;;;;;;5.32;1.83;;;29.00;99.60;;;;;;4972027;28;20039;-90
2022/08/11 12:05:39;;;;;;;8.63;1.92;;;28.90;98.90;;;;;;4969067;28;20039;-94
2022/08/11 12:15:21;;;;;;;;;;;;;;;;;;;;;
2022/08/11 12:17:47;;;;;;;6.28;1.85;;;29.00;99.00;;;;;;4993891;28;20400;-93
2022/08/11 12:20:37;;;;;;;8.02;1.83;;;29.20;98.80;;;;;;4958323;28;20039;-92
2022/08/11 12:29:53;;;;;;;4.72;1.65;;;29.20;98.10;;;;;;4976483;28;20129;-92
2022/08/11 12:32:23;;;;;;;3.90;1.70;;;29.20;97.50;;;;;;4996014;28;20035;-91
2022/08/11 12:38:02;;;;;;;3.88;1.65;;;29.10;96.80;;;;;;4948329;28;20051;-91
2022/08/11 12:46:37;;;;;;;4.97;1.73;;;29.20;96.30;;;;;;4965853;28;20039;-92
2022/08/11 12:52:25;;;;;;;5.60;1.83;;;29.40;95.90;;;;;;4976698;28;20118;-92
2022/08/11 12:55:05;;;;;;;3.72;1.60;;;29.50;96.50;;;;;;4945911;28;20042;-94
2022/08/11 13:05:56;;;;;;;5.30;1.75;;;29.60;96.70;;;;;;4968261;28;20105;-92
2022/08/11 13:08:24;;;;;;;4.65;1.75;;;29.50;96.00;;;;;;4974303;28;20123;-94
2022/08/11 13:13:53;;;;;;;7.18;1.92;;;29.50;95.40;;;;;;4966830;28;20036;-95
2022/08/11 13:16:25;;;;;;;4.63;1.60;;;29.60;95.10;;;;;;4968154;28;20066;-94
2022/08/11 13:18:55;;;;;;;6.50;1.70;;;29.50;94.90;;;;;;4985983;28;20525;-92
2022/08/11 13:21:23;;;;;;;6.57;1.80;;;29.60;94.80;;;;;;4960679;28;20042;-92
2022/08/11 13:23:53;;;;;;;4.38;1.60;;;29.60;95.10;;;;;;4970375;28;20035;-93
2022/08/11 13:26:20;;;;;;;6.68;1.80;;;29.60;94.80;;;;;;4975665;28;20035;-93
2022/08/11 13:28:46;;;;;;;6.40;2.03;;;29.60;94.70;;;;;;4978325;28;20054;-94
2022/08/11 13:31:16;;;;;;;6.07;1.60;;;29.70;94.40;;;;;;4957683;28;20078;-92
2022/08/11 13:33:51;;;;;;;6.13;1.63;;;29.70;94.60;;;;;;4957419;28;20585;-93
2022/08/11 13:36:26;;;;;;;4.55;1.50;;;29.80;94.20;;;;;;4970764;28;20447;-93
2022/08/11 13:38:58;;;;;;;6.75;1.70;;;29.80;94.20;;;;;;4960370;28;20043;-93
2022/08/11 13:41:38;;;;;;;5.68;1.60;;;30.10;94.40;;;;;;4946952;29;20094;-92
2022/08/11 13:44:17;;;;;;;4.80;1.60;;;29.60;94.20;;;;;;4972976;28;20046;-92
2022/08/11 13:46:43;;;;;;;3.78;1.65;;;29.50;94.50;;;;;;4970745;28;20438;-92
2022/08/11 13:49:21;;;;;;;4.22;1.60;;;27.90;94.30;;;;;;4973689;28;20416;-93
2022/08/11 13:51:47;;;;;;;4.90;1.70;;;29.20;94.70;;;;;;4970738;28;20047;-92
2022/08/11 13:54:20;;;;;;;7.05;1.95;;;29.40;94.90;;;;;;4951042;28;20043;-93
2022/08/11 13:56:48;;;;;;;6.22;1.80;;;30.80;94.80;;;;;;4966552;28;20049;-94
2022/08/11 13:59:19;;;;;;;4.70;1.60;;;29.40;94.20;;;;;;4972206;28;20534;-93
2022/08/11 14:01:53;;;;;;;8.65;1.95;;;29.40;94.30;;;;;;4970015;28;20062;-93
2022/08/11 14:04:32;;;;;;;5.78;1.58;;;29.30;94.40;;;;;;4971923;28;20042;-94
2022/08/11 14:07:01;;;;;;;7.30;1.95;;;29.30;94.40;;;;;;4953328;28;20186;-92
2022/08/11 14:09:36;;;;;;;4.70;1.80;;;29.30;94.50;;;;;;4978086;28;20046;-93
2022/08/11 14:15:08;;;;;;;6.55;2.03;;;29.20;94.80;;;;;;4971103;28;20047;-92
2022/08/11 14:17:37;;;;;;;4.13;1.55;;;29.20;95.00;;;;;;4942633;29;20098;-93
2022/08/11 14:20:07;;;;;;;4.78;1.80;;;29.20;94.80;;;;;;4951121;28;20063;-93
2022/08/11 14:22:36;;;;;;;3.90;1.48;;;29.30;94.80;;;;;;4951006;28;20047;-92
2022/08/11 14:25:02;;;;;;;5.65;1.70;;;29.20;94.60;;;;;;4967756;28;20031;-92
2022/08/11 14:27:29;;;;;;;6.85;2.20;;;29.10;94.80;;;;;;4972239;28;20615;-93
2022/08/11 14:30:00;;;;;;;5.70;1.70;;;29.20;95.10;;;;;;4956872;28;20514;-93
2022/08/11 14:32:32;;;;;;;7.47;2.25;;;29.10;94.70;;;;;;4969229;28;20051;-94
2022/08/11 14:34:59;;;;;;;5.07;1.63;;;27.80;95.20;;;;;;4969647;28;20053;-92
2022/08/11 14:37:32;;;;;;;3.45;1.50;;;28.70;95.10;;;;;;4946180;28;20126;-92
2022/08/11 14:47:03;;;;;;;5.13;1.50;;;29.20;95.10;;;;;;4953022;28;20550;-93
2022/08/11 14:48:25;;;;;;;7.10;1.80;;;29.10;95.10;;;;;;4969111;28;20451;-92
2022/08/11 14:51:04;;;;;;;6.22;1.70;;;29.10;95.50;;;;;;4958765;28;20043;-93
2022/08/11 14:53:33;;;;;;;6.57;1.67;;;29.20;95.40;;;;;;4967700;28;20050;-93
2022/08/11 14:59:24;;;;;;;6.22;1.70;;;29.10;95.40;;;;;;4981115;28;20137;-92
2022/08/11 15:04:38;;;;;;;7.05;2.00;;;29.20;95.60;;;;;;4965763;28;20121;-92
2022/08/11 15:07:13;;;;;;;5.50;2.00;;;29.20;95.70;;;;;;4953136;28;20530;-92
2022/08/11 15:09:42;;;;;;;6.47;1.80;;;29.20;95.60;;;;;;4950352;28;20047;-91
2022/08/11 15:12:17;;;;;;;8.05;1.90;;;29.10;95.50;;;;;;4953214;28;20492;-92
2022/08/11 15:17:33;;;;;;;5.32;1.70;;;29.20;95.80;;;;;;4986632;28;20042;-92
2022/08/11 15:25:37;;;;;;;9.57;2.33;;;29.20;95.90;;;;;;4968771;28;20101;-93
2022/08/11 15:37:25;;;;;;;8.30;1.77;;;29.40;96.10;;;;;;4932159;28;20051;-93
2022/08/11 15:39:28;;;;;;;6.80;2.10;;;29.70;96.00;;;;;;4953231;28;20078;-92
2022/08/11 15:47:56;;;;;;;6.18;1.98;;;31.20;95.60;;;;;;4966573;28;20042;-94
2022/08/11 15:50:29;;;;;;;7.07;2.20;;;32.00;95.30;;;;;;4969777;28;20047;-91
2022/08/11 15:53:04;;;;;;;5.68;1.73;;;32.30;94.70;;;;;;4970185;28;20057;-93
2022/08/11 15:55:33;;;;;;;5.70;2.00;;;32.30;94.10;;;;;;4955680;28;20069;-95
2022/08/11 16:04:47;;;;;;;7.30;1.90;;;30.70;95.00;;;;;;4984413;28;20401;-93
2022/08/11 16:07:34;;;;;;;7.60;1.98;;;30.80;94.80;;;;;;4950252;28;20057;-93
2022/08/11 16:10:09;;;;;;;8.82;2.50;;;30.20;95.20;;;;;;4968176;28;20038;-92
2022/08/11 16:12:40;;;;;;;8.20;1.90;;;30.00;95.00;;;;;;4968048;28;20062;-91
2022/08/11 16:18:02;;;;;;;7.00;2.00;;;29.80;95.60;;;;;;4967953;28;20080;-93
2022/08/11 16:20:29;;;;;;;8.57;2.72;;;31.10;95.30;;;;;;4972558;28;20491;-90
2022/08/11 16:23:06;;;;;;;21.38;11.13;;;32.10;94.60;;;;;;4983170;28;20070;-92
2022/08/11 16:25:36;;;;;;;9.23;3.58;;;31.70;94.40;;;;;;4953720;28;20109;-91
2022/08/11 16:28:05;;;;;;;14.45;6.18;;;31.40;94.70;;;;;;4966288;28;20031;-91
2022/08/11 16:30:33;;;;;;;8.68;3.25;;;31.00;95.10;;;;;;4951171;28;20049;-91
2022/08/11 16:33:03;;;;;;;35.60;17.27;;;30.60;95.20;;;;;;4967195;28;20744;-91
2022/08/11 16:38:34;;;;;;;37.22;22.42;;;30.00;95.70;;;;;;4965706;28;20047;-93
2022/08/11 16:41:04;;;;;;;19.92;10.18;;;29.90;96.30;;;;;;4985045;28;20041;-94
2022/08/11 16:49:05;;;;;;;8.75;3.38;;;29.70;96.80;;;;;;4955248;28;20038;-91
2022/08/11 16:51:32;;;;;;;8.25;2.60;;;29.70;96.60;;;;;;4953663;28;20089;-93
2022/08/11 16:53:58;;;;;;;7.72;2.95;;;29.50;96.60;;;;;;4952622;28;20039;-93
2022/08/11 16:56:37;;;;;;;7.78;2.47;;;29.40;96.70;;;;;;4954086;28;20432;-92
2022/08/11 16:59:13;;;;;;;6.95;2.10;;;29.20;96.60;;;;;;4957284;28;20638;-92
2022/08/11 17:01:53;;;;;;;5.15;1.98;;;28.90;96.80;;;;;;4972280;28;20053;-93
2022/08/11 17:13:14;;;;;;;7.22;2.03;;;28.30;97.70;;;;;;4986594;28;20058;-94
2022/08/11 17:16:05;;;;;;;5.10;1.90;;;28.20;98.00;;;;;;4953706;28;20050;-94
2022/08/11 17:18:40;;;;;;;5.95;2.10;;;28.20;98.30;;;;;;4967697;28;20063;-95
2022/08/11 17:21:26;;;;;;;5.53;1.75;;;28.10;98.40;;;;;;4967769;28;20067;-94
2022/08/11 17:24:08;;;;;;;6.07;1.90;;;28.00;98.80;;;;;;4983781;28;20070;-93
2022/08/11 17:26:55;;;;;;;6.50;2.05;;;28.50;99.20;;;;;;4953839;28;20034;-93
2022/08/11 17:29:44;;;;;;;7.50;2.08;;;28.40;98.80;;;;;;4952376;28;20126;-94
2022/08/11 17:37:49;;;;;;;7.43;1.90;;;28.30;99.00;;;;;;4966336;28;20042;-92
2022/08/11 17:40:23;;;;;;;6.53;1.80;;;28.10;99.00;;;;;;4965728;28;20043;-92
2022/08/11 17:48:29;;;;;;;7.88;1.90;;;27.60;99.20;;;;;;4958607;28;20054;-89
2022/08/11 17:50:55;;;;;;;6.13;1.85;;;27.40;99.20;;;;;;4974319;28;20038;-89
2022/08/11 18:01:39;;;;;;;4.47;1.73;;;26.90;99.70;;;;;;4961644;28;20083;-88
2022/08/11 18:04:08;;;;;;;7.70;1.80;;;26.80;99.80;;;;;;4951550;28;20043;-88
2022/08/11 18:06:36;;;;;;;7.60;1.70;;;26.60;99.80;;;;;;4964762;28;20047;-87
